createdAt,value
2018-07-27T00:02:03.689Z,61.40
2018-07-27T00:04:31.924Z,61.40
2018-07-27T00:07:12.874Z,61.60
2018-07-27T00:09:41.236Z,62.10
2018-07-27T00:12:09.489Z,62.50
2018-07-27T00:14:37.724Z,62.60
2018-07-27T00:17:15.175Z,62.70
2018-07-27T00:19:43.398Z,62.70
2018-07-27T00:22:17.591Z,63.00
2018-07-27T00:24:58.706Z,63.90
2018-07-27T00:27:27.429Z,63.70
2018-07-27T00:29:55.647Z,63.90
2018-07-27T00:32:36.134Z,64.40
2018-07-27T00:35:16.946Z,64.30
2018-07-27T00:37:45.150Z,64.60
2018-07-27T00:40:13.368Z,65.10
2018-07-27T00:42:54.298Z,65.20
2018-07-27T00:45:22.981Z,65.70
2018-07-27T00:47:51.204Z,65.70
2018-07-27T00:50:19.465Z,66.00
2018-07-27T00:52:59.927Z,65.90
2018-07-27T00:55:41.209Z,66.60
2018-07-27T00:58:22.241Z,67.30
2018-07-27T01:00:50.527Z,67.10
2018-07-27T01:03:30.717Z,68.30
2018-07-27T01:05:58.965Z,68.90
2018-07-27T01:08:39.448Z,69.20
2018-07-27T01:11:20.071Z,69.60
2018-07-27T01:13:48.359Z,69.80
2018-07-27T01:16:29.525Z,70.50
2018-07-27T01:19:10.252Z,71.20
2018-07-27T01:21:50.845Z,72.00
2018-07-27T01:24:31.750Z,73.00
2018-07-27T01:27:12.323Z,73.50
2018-07-27T01:29:40.580Z,73.60
2018-07-27T01:32:08.777Z,74.00
2018-07-27T01:34:48.946Z,74.60
2018-07-27T01:37:29.912Z,75.30
2018-07-27T01:40:03.216Z,75.80
2018-07-27T01:42:44.280Z,77.10
2018-07-27T01:45:24.987Z,77.60
2018-07-27T01:47:53.276Z,79.00
2018-07-27T01:50:21.616Z,80.30
2018-07-27T01:53:01.848Z,80.70
2018-07-27T01:55:42.532Z,80.70
2018-07-27T01:58:10.754Z,81.70
2018-07-27T02:00:51.081Z,82.30
2018-07-27T02:03:19.320Z,83.10
2018-07-27T02:05:59.583Z,84.10
2018-07-27T02:08:40.324Z,84.60
2018-07-27T02:11:08.542Z,85.70
2018-07-27T02:13:48.919Z,86.90
2018-07-27T02:16:17.193Z,88.20
2018-07-27T02:18:58.397Z,89.70
2018-07-27T02:21:26.683Z,90.50
2018-07-27T02:24:07.849Z,91.00
2018-07-27T02:26:36.058Z,91.40
2018-07-27T02:29:16.274Z,91.70
2018-07-27T02:31:44.621Z,92.00
2018-07-27T02:34:12.939Z,92.30
2018-07-27T02:36:41.174Z,92.30
2018-07-27T02:39:21.677Z,92.50
2018-07-27T02:42:02.378Z,92.70
2018-07-27T02:44:30.667Z,93.20
2018-07-27T02:47:02.017Z,93.80
2018-07-27T02:49:42.823Z,94.40
2018-07-27T02:52:23.611Z,94.80
2018-07-27T02:55:04.320Z,95.00
2018-07-27T02:57:34.550Z,95.10
2018-07-27T03:00:02.806Z,95.20
2018-07-27T03:02:43.592Z,95.40
2018-07-27T03:05:11.922Z,95.80
2018-07-27T03:07:40.295Z,96.20
2018-07-27T03:10:20.651Z,96.30
2018-07-27T03:12:48.926Z,96.90
2018-07-27T03:15:29.273Z,97.80
2018-07-27T03:18:09.903Z,98.10
2018-07-27T03:20:50.429Z,98.20
2018-07-27T03:23:31.161Z,98.70
2018-07-27T03:26:11.782Z,98.70
2018-07-27T03:28:41.452Z,99.20
2018-07-27T03:31:22.504Z,99.70
2018-07-27T03:34:02.860Z,99.60
